Terminal Aerodrome Forecast
Issued by NWS Indianapolis, IN

Home | Current Version | Previous Version | Text Only | Print | Product List | Glossary On
Versions: 1 2 3 4 5 6 7 8 9 10 11 12 13 14 15 16 17 18 19 20 21 22 23 24
127
FTUS43 KIND 260826 AAB
TAFIND
TAF AMD
KIND 260826Z 2608/2712 20008KT P6SM BKN020 BKN070
     FM261600 21010KT P6SM SCT025 SCT080
     FM261900 21010KT P6SM BKN040
     FM270200 17008KT P6SM SCT050 BKN200=

USA.gov is the U.S. government's official web portal to all federal, state and local government web resources and services.